F\v Desperado — FVFQ — position and weather

sailwx.info

Track history (hours):
 
Tides and Currents Weather Stations Pressure Air Temp Water Temp Dewpoint Dewpoint Depression Visibility Wind Speed Wind Dir Waves Ship Positions

F\v Desperado

Last reported at 2017-Aug-19 03:30 UTC. Time now 2017-Aug-19 03:39 UTC.
Position N 46°30' W 001°47'.

Type: Fishing. MMSI: 228312000.

Date/timePositionNaut miles runAvg speedWind from/ knotsBaromVisibWave heightAir tempDewpointWater temp
2017-Aug-19 03:30N 46°30' W 001°47'0 0.0
2017-Aug-19 03:00N 46°30' W 001°47'0 0.0
2017-Aug-19 02:30N 46°30' W 001°47'0 0.0
2017-Aug-19 02:00N 46°30' W 001°47'0 0.0
2017-Aug-19 01:30N 46°30' W 001°47'0 0.0
2017-Aug-19 01:00N 46°30' W 001°47'0 0.0
2017-Aug-19 00:30N 46°30' W 001°47'0 0.0
2017-Aug-19 00:00N 46°30' W 001°47'0 0.0
2017-Aug-18 23:30N 46°30' W 001°47'0 0.0
2017-Aug-18 23:00N 46°30' W 001°47'0 0.0
2017-Aug-18 22:30N 46°30' W 001°47'0 0.0
2017-Aug-18 22:00N 46°30' W 001°47'0 0.0
2017-Aug-18 21:30N 46°30' W 001°47'0 0.0
2017-Aug-18 21:00N 46°30' W 001°47'0 0.0
2017-Aug-18 20:30N 46°30' W 001°47'0 0.0
2017-Aug-18 20:00N 46°30' W 001°47'0 0.0
2017-Aug-18 19:30N 46°30' W 001°47'0 0.0
2017-Aug-18 19:00N 46°30' W 001°47'0 0.0
2017-Aug-18 18:30N 46°30' W 001°47'0 0.0
2017-Aug-18 18:00N 46°30' W 001°47'0 0.0
2017-Aug-18 17:30N 46°30' W 001°47'0 0.0
2017-Aug-18 17:00N 46°30' W 001°47'0 0.0
2017-Aug-18 16:30N 46°30' W 001°47'0 0.0
2017-Aug-18 16:00N 46°30' W 001°47'0 0.0
2017-Aug-18 15:30N 46°30' W 001°47'0 0.0
2017-Aug-18 15:00N 46°30' W 001°47'0 0.0
2017-Aug-18 14:30N 46°30' W 001°47'0 0.0
2017-Aug-18 13:30N 46°30' W 001°47'0 0.0
2017-Aug-18 13:00N 46°30' W 001°47'0 0.0
2017-Aug-18 12:30N 46°30' W 001°47'0 0.0
2017-Aug-18 12:00N 46°30' W 001°47'0 0.0
2017-Aug-18 11:30N 46°30' W 001°47'0 0.0
2017-Aug-18 11:00N 46°30' W 001°47'0 0.0
2017-Aug-18 10:30N 46°30' W 001°47'0 0.1
2017-Aug-18 10:00N 46°30' W 001°47'0 0.0
2017-Aug-18 09:30N 46°30' W 001°47'0 0.0
2017-Aug-18 09:00N 46°30' W 001°47'0 0.0
2017-Aug-18 08:30N 46°30' W 001°47'0 0.0
2017-Aug-18 08:00N 46°30' W 001°47'0 0.0
2017-Aug-18 07:30N 46°30' W 001°47'0 0.0
2017-Aug-18 07:00N 46°30' W 001°47'0 0.0
2017-Aug-18 06:30N 46°30' W 001°47'0 0.0
2017-Aug-18 06:00N 46°30' W 001°47'0 0.0
2017-Aug-18 05:30N 46°30' W 001°47'0 0.0
2017-Aug-18 05:00N 46°30' W 001°47'0 0.0
2017-Aug-18 04:30N 46°30' W 001°47'0 0.0
2017-Aug-18 04:00N 46°30' W 001°47'0 0.0
2017-Aug-18 03:30N 46°30' W 001°47'0 0.0
2017-Aug-18 03:00N 46°30' W 001°47'0 0.0
2017-Aug-18 02:30N 46°30' W 001°47'0 0.0
2017-Aug-18 02:00N 46°30' W 001°47'0 0.0
2017-Aug-18 01:30N 46°30' W 001°47'1 2.1
2017-Aug-18 01:00N 46°29' W 001°47'4 7.7
2017-Aug-18 00:30N 46°27' W 001°52'4 8.4
2017-Aug-18 00:00N 46°25' W 001°58'9 0.5
2017-Aug-17 04:05N 46°23' W 002°10'1 8.1
2017-Aug-17 04:00N 46°23' W 002°10'4 8.1
2017-Aug-17 03:30N 46°24' W 002°04'4 7.9
2017-Aug-17 03:00N 46°26' W 001°58'4 8.2
2017-Aug-17 02:30N 46°27' W 001°53'4 8.2
2017-Aug-17 02:00N 46°28' W 001°47'2 3.0
2017-Aug-17 01:30N 46°30' W 001°47'0 0.0
2017-Aug-17 01:00N 46°30' W 001°47'2 3.7
2017-Aug-17 00:30N 46°28' W 001°48'4 8.3
2017-Aug-17 00:00N 46°27' W 001°53'4 8.4
2017-Aug-16 23:29N 46°26' W 001°59'23 8.7
2017-Aug-16 20:51N 46°22' W 002°32'17 1.1
2017-Aug-16 06:15N 46°11' W 002°50'2 3.2
2017-Aug-16 05:36N 46°12' W 002°48'4 1.4
2017-Aug-16 02:40N 46°16' W 002°51'1 3.3
2017-Aug-16 02:27N 46°16' W 002°52'5 0.3
2017-Aug-15 05:45N 46°11' W 002°49'2 3.3
2017-Aug-15 05:14N 46°13' W 002°48'1 3.3
2017-Aug-15 04:58N 46°13' W 002°47'6 7.0
2017-Aug-15 04:07N 46°18' W 002°53'2 8.1
2017-Aug-15 03:53N 46°20' W 002°54'1 2.9
2017-Aug-15 03:30N 46°21' W 002°55'2 3.2
2017-Aug-15 03:00N 46°22' W 002°56'4 3.1
2017-Aug-15 01:49N 46°25' W 002°59'1 3.2
2017-Aug-15 01:30N 46°26' W 002°60'2 3.3
2017-Aug-15 01:00N 46°27' W 003°01'2 3.4
2017-Aug-15 00:30N 46°29' W 003°02'2 3.3
2017-Aug-15 00:00N 46°30' W 003°03'12 0.9
2017-Aug-14 10:53N 46°42' W 003°03'2 5.5
2017-Aug-14 10:26N 46°44' W 003°05'4 8.9
2017-Aug-14 10:00N 46°47' W 003°08'6 8.8
2017-Aug-14 09:18N 46°52' W 003°12'4 8.0
2017-Aug-14 08:45N 46°56' W 003°15'2 8.4
2017-Aug-14 08:30N 46°58' W 003°17'4 8.5
2017-Aug-14 07:59N 47°02' W 003°20'4 8.3
2017-Aug-14 07:30N 47°05' W 003°23'4 8.5
2017-Aug-14 07:00N 47°09' W 003°26'4 8.6
2017-Aug-14 06:29N 47°13' W 003°30'4 8.3
2017-Aug-14 05:57N 47°17' W 003°33'4 8.2
2017-Aug-14 05:30N 47°20' W 003°35'4 8.2
2017-Aug-14 05:00N 47°23' W 003°39'4 8.2
2017-Aug-14 04:30N 47°27' W 003°42'4 8.0
2017-Aug-14 04:00N 47°30' W 003°45'4 7.9
2017-Aug-14 03:30N 47°34' W 003°48'4 8.0
2017-Aug-14 03:00N 47°37' W 003°50'8 8.1
2017-Aug-14 01:58N 47°45' W 003°55'5 1.5
2017-Aug-13 22:24N 47°50' W 003°56'9 7.8
2017-Aug-13 21:18N 47°42' W 003°53'5 8.0
2017-Aug-13 20:41N 47°38' W 003°50'2 8.0
2017-Aug-13 20:27N 47°36' W 003°49'3 7.9
2017-Aug-13 20:00N 47°33' W 003°46'1 2.2
2017-Aug-13 19:30N 47°32' W 003°47'2 3.3
2017-Aug-13 19:00N 47°31' W 003°48'2 3.2
2017-Aug-13 18:30N 47°29' W 003°48'14 0.8
2017-Aug-13 01:50N 47°19' W 004°02'1 2.0
2017-Aug-13 01:25N 47°20' W 004°01'7 2.2
2017-Aug-12 22:00N 47°15' W 004°09'2 3.6
2017-Aug-12 21:25N 47°16' W 004°07'2 0.6
2017-Aug-12 18:30N 47°17' W 004°07'1 0.3
2017-Aug-12 15:09N 47°18' W 004°06'1 3.1
2017-Aug-12 14:56N 47°19' W 004°05'2 3.0
2017-Aug-12 14:14N 47°20' W 004°03'31 2.0
2017-Aug-11 22:58N 47°51' W 003°56'3 5.9
2017-Aug-11 22:28N 47°48' W 003°56'3 5.9
2017-Aug-11 22:00N 47°45' W 003°55'6 7.8
2017-Aug-11 21:18N 47°40' W 003°54'2 5.5
2017-Aug-11 20:59N 47°38' W 003°54'4 4.3
2017-Aug-11 19:57N 47°34' W 003°54'1 3.0
2017-Aug-11 19:27N 47°33' W 003°52'2 1.1
2017-Aug-11 18:02N 47°32' W 003°52'0 3.3
2017-Aug-11 18:00N 47°32' W 003°52'1 2.7
2017-Aug-11 17:27N 47°30' W 003°50'2 3.1
2017-Aug-11 16:55N 47°30' W 003°48'6 2.0
2017-Aug-11 13:59N 47°30' W 003°57'2 3.3
2017-Aug-11 13:27N 47°30' W 003°54'1 3.1
2017-Aug-11 13:00N 47°29' W 003°52'2 3.2
2017-Aug-11 12:30N 47°28' W 003°51'2 3.4
2017-Aug-11 12:00N 47°28' W 003°48'4 2.0
2017-Aug-11 10:05N 47°30' W 003°53'0 0.5
2017-Aug-11 10:00N 47°30' W 003°53'9 1.9
2017-Aug-11 05:11N 47°21' W 003°57'8 1.9
2017-Aug-11 01:07N 47°27' W 004°05'3 3.2
2017-Aug-11 00:05N 47°26' W 004°01'0 3.4
2017-Aug-10 23:59N 47°26' W 004°00'2 3.4
2017-Aug-10 23:29N 47°26' W 003°58'2 3.5
2017-Aug-10 22:58N 47°26' W 003°55'1 0.1
2017-Aug-10 06:25N 47°25' W 003°56'1 0.7
2017-Aug-10 05:20N 47°25' W 003°55'  
Track history (hours):
 
Tides and Currents Weather Stations Pressure Air Temp Water Temp Dewpoint Dewpoint Depression Visibility Wind Speed Wind Dir Waves Ship Positions

F\v Desperado

Last reported at 2017-Aug-19 03:30 UTC. Time now 2017-Aug-19 03:39 UTC.
Position N 46°30' W 001°47'.

Type: Fishing. MMSI: 228312000.

Date/timePositionNaut miles runAvg speedWind from/ knotsBaromVisibWave heightAir tempDewpointWater temp
2017-Aug-19 03:30N 46°30' W 001°47'0 0.0
2017-Aug-19 03:00N 46°30' W 001°47'0 0.0
2017-Aug-19 02:30N 46°30' W 001°47'0 0.0
2017-Aug-19 02:00N 46°30' W 001°47'0 0.0
2017-Aug-19 01:30N 46°30' W 001°47'0 0.0
2017-Aug-19 01:00N 46°30' W 001°47'0 0.0
2017-Aug-19 00:30N 46°30' W 001°47'0 0.0
2017-Aug-19 00:00N 46°30' W 001°47'0 0.0
2017-Aug-18 23:30N 46°30' W 001°47'0 0.0
2017-Aug-18 23:00N 46°30' W 001°47'0 0.0
2017-Aug-18 22:30N 46°30' W 001°47'0 0.0
2017-Aug-18 22:00N 46°30' W 001°47'0 0.0
2017-Aug-18 21:30N 46°30' W 001°47'0 0.0
2017-Aug-18 21:00N 46°30' W 001°47'0 0.0
2017-Aug-18 20:30N 46°30' W 001°47'0 0.0
2017-Aug-18 20:00N 46°30' W 001°47'0 0.0
2017-Aug-18 19:30N 46°30' W 001°47'0 0.0
2017-Aug-18 19:00N 46°30' W 001°47'0 0.0
2017-Aug-18 18:30N 46°30' W 001°47'0 0.0
2017-Aug-18 18:00N 46°30' W 001°47'0 0.0
2017-Aug-18 17:30N 46°30' W 001°47'0 0.0
2017-Aug-18 17:00N 46°30' W 001°47'0 0.0
2017-Aug-18 16:30N 46°30' W 001°47'0 0.0
2017-Aug-18 16:00N 46°30' W 001°47'0 0.0
2017-Aug-18 15:30N 46°30' W 001°47'0 0.0
2017-Aug-18 15:00N 46°30' W 001°47'0 0.0
2017-Aug-18 14:30N 46°30' W 001°47'0 0.0
2017-Aug-18 13:30N 46°30' W 001°47'0 0.0
2017-Aug-18 13:00N 46°30' W 001°47'0 0.0
2017-Aug-18 12:30N 46°30' W 001°47'0 0.0
2017-Aug-18 12:00N 46°30' W 001°47'0 0.0
2017-Aug-18 11:30N 46°30' W 001°47'0 0.0
2017-Aug-18 11:00N 46°30' W 001°47'0 0.0
2017-Aug-18 10:30N 46°30' W 001°47'0 0.1
2017-Aug-18 10:00N 46°30' W 001°47'0 0.0
2017-Aug-18 09:30N 46°30' W 001°47'0 0.0
2017-Aug-18 09:00N 46°30' W 001°47'0 0.0
2017-Aug-18 08:30N 46°30' W 001°47'0 0.0
2017-Aug-18 08:00N 46°30' W 001°47'0 0.0
2017-Aug-18 07:30N 46°30' W 001°47'0 0.0
2017-Aug-18 07:00N 46°30' W 001°47'0 0.0
2017-Aug-18 06:30N 46°30' W 001°47'0 0.0
2017-Aug-18 06:00N 46°30' W 001°47'0 0.0
2017-Aug-18 05:30N 46°30' W 001°47'0 0.0
2017-Aug-18 05:00N 46°30' W 001°47'0 0.0
2017-Aug-18 04:30N 46°30' W 001°47'0 0.0
2017-Aug-18 04:00N 46°30' W 001°47'0 0.0
2017-Aug-18 03:30N 46°30' W 001°47'0 0.0
2017-Aug-18 03:00N 46°30' W 001°47'0 0.0
2017-Aug-18 02:30N 46°30' W 001°47'0 0.0
2017-Aug-18 02:00N 46°30' W 001°47'0 0.0
2017-Aug-18 01:30N 46°30' W 001°47'1 2.1
2017-Aug-18 01:00N 46°29' W 001°47'4 7.7
2017-Aug-18 00:30N 46°27' W 001°52'4 8.4
2017-Aug-18 00:00N 46°25' W 001°58'9 0.5
2017-Aug-17 04:05N 46°23' W 002°10'1 8.1
2017-Aug-17 04:00N 46°23' W 002°10'4 8.1
2017-Aug-17 03:30N 46°24' W 002°04'4 7.9
2017-Aug-17 03:00N 46°26' W 001°58'4 8.2
2017-Aug-17 02:30N 46°27' W 001°53'4 8.2
2017-Aug-17 02:00N 46°28' W 001°47'2 3.0
2017-Aug-17 01:30N 46°30' W 001°47'0 0.0
2017-Aug-17 01:00N 46°30' W 001°47'2 3.7
2017-Aug-17 00:30N 46°28' W 001°48'4 8.3
2017-Aug-17 00:00N 46°27' W 001°53'4 8.4
2017-Aug-16 23:29N 46°26' W 001°59'23 8.7
2017-Aug-16 20:51N 46°22' W 002°32'17 1.1
2017-Aug-16 06:15N 46°11' W 002°50'2 3.2
2017-Aug-16 05:36N 46°12' W 002°48'4 1.4
2017-Aug-16 02:40N 46°16' W 002°51'1 3.3
2017-Aug-16 02:27N 46°16' W 002°52'5 0.3
2017-Aug-15 05:45N 46°11' W 002°49'2 3.3
2017-Aug-15 05:14N 46°13' W 002°48'1 3.3
2017-Aug-15 04:58N 46°13' W 002°47'6 7.0
2017-Aug-15 04:07N 46°18' W 002°53'2 8.1
2017-Aug-15 03:53N 46°20' W 002°54'1 2.9
2017-Aug-15 03:30N 46°21' W 002°55'2 3.2
2017-Aug-15 03:00N 46°22' W 002°56'4 3.1
2017-Aug-15 01:49N 46°25' W 002°59'1 3.2
2017-Aug-15 01:30N 46°26' W 002°60'2 3.3
2017-Aug-15 01:00N 46°27' W 003°01'2 3.4
2017-Aug-15 00:30N 46°29' W 003°02'2 3.3
2017-Aug-15 00:00N 46°30' W 003°03'12 0.9
2017-Aug-14 10:53N 46°42' W 003°03'2 5.5
2017-Aug-14 10:26N 46°44' W 003°05'4 8.9
2017-Aug-14 10:00N 46°47' W 003°08'6 8.8
2017-Aug-14 09:18N 46°52' W 003°12'4 8.0
2017-Aug-14 08:45N 46°56' W 003°15'2 8.4
2017-Aug-14 08:30N 46°58' W 003°17'4 8.5
2017-Aug-14 07:59N 47°02' W 003°20'4 8.3
2017-Aug-14 07:30N 47°05' W 003°23'4 8.5
2017-Aug-14 07:00N 47°09' W 003°26'4 8.6
2017-Aug-14 06:29N 47°13' W 003°30'4 8.3
2017-Aug-14 05:57N 47°17' W 003°33'4 8.2
2017-Aug-14 05:30N 47°20' W 003°35'4 8.2
2017-Aug-14 05:00N 47°23' W 003°39'4 8.2
2017-Aug-14 04:30N 47°27' W 003°42'4 8.0
2017-Aug-14 04:00N 47°30' W 003°45'4 7.9
2017-Aug-14 03:30N 47°34' W 003°48'4 8.0
2017-Aug-14 03:00N 47°37' W 003°50'8 8.1
2017-Aug-14 01:58N 47°45' W 003°55'5 1.5
2017-Aug-13 22:24N 47°50' W 003°56'9 7.8
2017-Aug-13 21:18N 47°42' W 003°53'5 8.0
2017-Aug-13 20:41N 47°38' W 003°50'2 8.0
2017-Aug-13 20:27N 47°36' W 003°49'3 7.9
2017-Aug-13 20:00N 47°33' W 003°46'1 2.2
2017-Aug-13 19:30N 47°32' W 003°47'2 3.3
2017-Aug-13 19:00N 47°31' W 003°48'2 3.2
2017-Aug-13 18:30N 47°29' W 003°48'14 0.8
2017-Aug-13 01:50N 47°19' W 004°02'1 2.0
2017-Aug-13 01:25N 47°20' W 004°01'7 2.2
2017-Aug-12 22:00N 47°15' W 004°09'2 3.6
2017-Aug-12 21:25N 47°16' W 004°07'2 0.6
2017-Aug-12 18:30N 47°17' W 004°07'1 0.3
2017-Aug-12 15:09N 47°18' W 004°06'1 3.1
2017-Aug-12 14:56N 47°19' W 004°05'2 3.0
2017-Aug-12 14:14N 47°20' W 004°03'31 2.0
2017-Aug-11 22:58N 47°51' W 003°56'3 5.9
2017-Aug-11 22:28N 47°48' W 003°56'3 5.9
2017-Aug-11 22:00N 47°45' W 003°55'6 7.8
2017-Aug-11 21:18N 47°40' W 003°54'2 5.5
2017-Aug-11 20:59N 47°38' W 003°54'4 4.3
2017-Aug-11 19:57N 47°34' W 003°54'1 3.0
2017-Aug-11 19:27N 47°33' W 003°52'2 1.1
2017-Aug-11 18:02N 47°32' W 003°52'0 3.3
2017-Aug-11 18:00N 47°32' W 003°52'1 2.7
2017-Aug-11 17:27N 47°30' W 003°50'2 3.1
2017-Aug-11 16:55N 47°30' W 003°48'6 2.0
2017-Aug-11 13:59N 47°30' W 003°57'2 3.3
2017-Aug-11 13:27N 47°30' W 003°54'1 3.1
2017-Aug-11 13:00N 47°29' W 003°52'2 3.2
2017-Aug-11 12:30N 47°28' W 003°51'2 3.4
2017-Aug-11 12:00N 47°28' W 003°48'4 2.0
2017-Aug-11 10:05N 47°30' W 003°53'0 0.5
2017-Aug-11 10:00N 47°30' W 003°53'9 1.9
2017-Aug-11 05:11N 47°21' W 003°57'8 1.9
2017-Aug-11 01:07N 47°27' W 004°05'3 3.2
2017-Aug-11 00:05N 47°26' W 004°01'0 3.4
2017-Aug-10 23:59N 47°26' W 004°00'2 3.4
2017-Aug-10 23:29N 47°26' W 003°58'2 3.5
2017-Aug-10 22:58N 47°26' W 003°55'1 0.1
2017-Aug-10 06:25N 47°25' W 003°56'1 0.7
2017-Aug-10 05:20N 47°25' W 003°55'  

Dump ship's entire track history